createdAt,value
2022-08-30T00:00:46.525Z,1014.82
2022-08-30T00:01:46.531Z,1014.82
2022-08-30T00:02:46.657Z,1014.85
2022-08-30T00:03:46.694Z,1014.82
2022-08-30T00:04:46.522Z,1014.85
2022-08-30T00:05:46.522Z,1014.85
2022-08-30T00:06:46.521Z,1014.84
2022-08-30T00:07:46.520Z,1014.89
2022-08-30T00:08:46.520Z,1014.85
2022-08-30T00:09:46.529Z,1014.81
2022-08-30T00:10:46.522Z,1014.87
2022-08-30T00:11:46.518Z,1014.85
2022-08-30T00:12:46.531Z,1014.84
2022-08-30T00:13:46.521Z,1014.78
2022-08-30T00:14:46.517Z,1014.81
2022-08-30T00:15:46.615Z,1014.83
2022-08-30T00:16:46.515Z,1014.80
2022-08-30T00:17:46.521Z,1014.79
2022-08-30T00:18:46.513Z,1014.75
2022-08-30T00:19:46.538Z,1014.77
2022-08-30T00:20:46.517Z,1014.77
2022-08-30T00:21:46.515Z,1014.79
2022-08-30T00:22:46.517Z,1014.76
2022-08-30T00:23:46.515Z,1014.77
2022-08-30T00:24:46.514Z,1014.73
2022-08-30T00:25:46.520Z,1014.78
2022-08-30T00:26:46.511Z,1014.72
2022-08-30T00:27:46.514Z,1014.75
2022-08-30T00:28:46.530Z,1014.73
2022-08-30T00:29:46.512Z,1014.74
2022-08-30T00:30:46.582Z,1014.71
2022-08-30T00:31:46.510Z,1014.76
2022-08-30T00:32:46.514Z,1014.72
2022-08-30T00:33:46.513Z,1014.76
2022-08-30T00:34:46.509Z,1014.71
2022-08-30T00:35:46.509Z,1014.75
2022-08-30T00:36:46.508Z,1014.75
2022-08-30T00:37:46.509Z,1014.74
2022-08-30T00:38:46.508Z,1014.79
2022-08-30T00:39:46.504Z,1014.82
2022-08-30T00:40:46.533Z,1014.83
2022-08-30T00:41:46.506Z,1014.79
2022-08-30T00:42:50.734Z,1014.84
2022-08-30T00:43:46.505Z,1014.83
2022-08-30T00:44:46.505Z,1014.88
2022-08-30T00:45:47.034Z,1014.79
2022-08-30T00:46:46.507Z,1014.79
2022-08-30T00:47:46.505Z,1014.83
2022-08-30T00:48:46.504Z,1014.81
2022-08-30T00:49:46.508Z,1014.77
2022-08-30T00:50:46.500Z,1014.78
2022-08-30T00:51:46.501Z,1014.81
2022-08-30T00:52:46.501Z,1014.80
2022-08-30T00:53:46.501Z,1014.79
2022-08-30T00:54:46.499Z,1014.84
2022-08-30T00:55:46.498Z,1014.83
2022-08-30T00:56:46.501Z,1014.89
2022-08-30T00:57:46.497Z,1014.87
2022-08-30T00:58:46.498Z,1014.89
2022-08-30T00:59:46.496Z,1014.89
2022-08-30T01:00:46.499Z,1014.90
2022-08-30T01:01:46.551Z,1014.93
2022-08-30T01:02:46.544Z,1014.89
2022-08-30T01:03:46.494Z,1014.85
2022-08-30T01:04:46.495Z,1014.97
2022-08-30T01:05:46.506Z,1014.91
2022-08-30T01:06:46.492Z,1014.91
2022-08-30T01:07:46.492Z,1014.93
2022-08-30T01:08:46.496Z,1014.95
2022-08-30T01:09:46.493Z,1014.96
2022-08-30T01:10:46.495Z,1014.95
2022-08-30T01:11:46.490Z,1014.99
2022-08-30T01:12:46.495Z,1015.03
2022-08-30T01:13:46.488Z,1015.05
2022-08-30T01:14:46.490Z,1015.04
2022-08-30T01:15:46.580Z,1015.05
2022-08-30T01:16:46.489Z,1015.05
2022-08-30T01:17:46.488Z,1015.05
2022-08-30T01:18:46.489Z,1015.04
2022-08-30T01:19:46.485Z,1015.03
2022-08-30T01:20:46.490Z,1015.02
2022-08-30T01:21:46.491Z,1015.04
2022-08-30T01:22:46.490Z,1015.01
2022-08-30T01:23:46.487Z,1015.03
2022-08-30T01:24:46.486Z,1015.04
2022-08-30T01:25:46.486Z,1015.05
2022-08-30T01:26:46.486Z,1015.04
2022-08-30T01:27:46.485Z,1015.06
2022-08-30T01:28:46.491Z,1015.06
2022-08-30T01:29:46.483Z,1015.04
2022-08-30T01:30:46.603Z,1015.08
2022-08-30T01:31:46.486Z,1015.12
2022-08-30T01:32:46.494Z,1015.09
2022-08-30T01:33:46.485Z,1015.05
2022-08-30T01:34:46.482Z,1015.09
2022-08-30T01:35:46.481Z,1015.10
2022-08-30T01:36:46.484Z,1015.09
2022-08-30T01:37:46.480Z,1015.09
2022-08-30T01:38:46.477Z,1015.09
2022-08-30T01:39:46.477Z,1015.11
2022-08-30T01:40:46.479Z,1015.06
2022-08-30T01:41:46.477Z,1015.10
2022-08-30T01:42:46.479Z,1015.10
2022-08-30T01:43:46.480Z,1015.10
2022-08-30T01:44:46.477Z,1015.09
2022-08-30T01:45:46.696Z,1015.11
2022-08-30T01:46:46.482Z,1015.07
2022-08-30T01:47:46.476Z,1015.11
2022-08-30T01:48:52.991Z,1015.15
2022-08-30T01:49:46.474Z,1015.11
2022-08-30T01:50:46.486Z,1015.13
2022-08-30T01:51:46.471Z,1015.14
2022-08-30T01:52:46.471Z,1015.14
2022-08-30T01:53:46.473Z,1015.17
2022-08-30T01:54:46.471Z,1015.13
2022-08-30T01:55:46.469Z,1015.13
2022-08-30T01:56:46.472Z,1015.18
2022-08-30T01:57:46.472Z,1015.13
2022-08-30T01:58:46.478Z,1015.17
2022-08-30T01:59:46.469Z,1015.18
2022-08-30T02:00:46.471Z,1015.18
2022-08-30T02:01:46.532Z,1015.17
2022-08-30T02:02:46.468Z,1015.18
2022-08-30T02:03:46.543Z,1015.17
2022-08-30T02:04:46.471Z,1015.16
2022-08-30T02:05:46.466Z,1015.16
2022-08-30T02:06:46.466Z,1015.16
2022-08-30T02:07:46.465Z,1015.16
2022-08-30T02:08:46.465Z,1015.14
2022-08-30T02:09:46.467Z,1015.14
2022-08-30T02:10:46.463Z,1015.13
2022-08-30T02:11:46.461Z,1015.13
2022-08-30T02:12:46.461Z,1015.11
2022-08-30T02:13:46.461Z,1015.11
2022-08-30T02:14:46.464Z,1015.10
2022-08-30T02:15:46.457Z,1015.13
2022-08-30T02:16:46.483Z,1015.13
2022-08-30T02:17:46.456Z,1015.14
2022-08-30T02:18:46.458Z,1015.14
2022-08-30T02:19:46.454Z,1015.15
2022-08-30T02:20:46.456Z,1015.17
2022-08-30T02:21:46.456Z,1015.18
2022-08-30T02:22:49.338Z,1015.17
2022-08-30T02:23:46.451Z,1015.14
2022-08-30T02:24:46.466Z,1015.16
2022-08-30T02:25:46.453Z,1015.15
2022-08-30T02:26:46.453Z,1015.10
2022-08-30T02:27:46.450Z,1015.13
2022-08-30T02:28:49.673Z,1015.15
2022-08-30T02:29:46.450Z,1015.12
2022-08-30T02:30:46.500Z,1015.11
2022-08-30T02:31:46.447Z,1015.11
2022-08-30T02:32:46.449Z,1015.12
2022-08-30T02:33:46.447Z,1015.09
2022-08-30T02:34:46.446Z,1015.09
2022-08-30T02:35:46.445Z,1015.07
2022-08-30T02:36:46.445Z,1015.10
2022-08-30T02:37:46.446Z,1015.08
2022-08-30T02:38:46.445Z,1015.07
2022-08-30T02:39:46.442Z,1015.10
2022-08-30T02:40:46.541Z,1015.09
2022-08-30T02:41:46.444Z,1015.11
2022-08-30T02:42:46.441Z,1015.11
2022-08-30T02:43:46.440Z,1015.10
2022-08-30T02:44:46.444Z,1015.14
2022-08-30T02:45:46.480Z,1015.15
2022-08-30T02:46:46.439Z,1015.13
2022-08-30T02:47:47.223Z,1015.11
2022-08-30T02:48:46.439Z,1015.11
2022-08-30T02:49:46.439Z,1015.10
2022-08-30T02:50:46.436Z,1015.14
2022-08-30T02:51:46.447Z,1015.09
2022-08-30T02:52:48.403Z,1015.12
2022-08-30T02:53:46.435Z,1015.04
2022-08-30T02:54:46.434Z,1015.08
2022-08-30T02:55:46.434Z,1015.06
2022-08-30T02:56:46.436Z,1015.05
2022-08-30T02:57:46.429Z,1015.09
2022-08-30T02:58:46.433Z,1015.06
2022-08-30T02:59:46.430Z,1015.02
2022-08-30T03:00:46.479Z,1015.03
2022-08-30T03:01:46.512Z,1015.02
2022-08-30T03:02:46.425Z,1015.01
2022-08-30T03:03:46.498Z,1015.04
2022-08-30T03:04:46.426Z,1015.01
2022-08-30T03:05:46.425Z,1015.00
2022-08-30T03:06:46.427Z,1015.08
2022-08-30T03:07:46.423Z,1015.02
2022-08-30T03:08:46.427Z,1014.98
2022-08-30T03:09:46.429Z,1015.00
2022-08-30T03:10:46.424Z,1014.96
2022-08-30T03:11:46.421Z,1014.95
2022-08-30T03:12:46.421Z,1014.95
2022-08-30T03:13:46.420Z,1014.93
2022-08-30T03:14:46.426Z,1014.96
2022-08-30T03:15:46.422Z,1014.94
2022-08-30T03:16:46.522Z,1014.99
2022-08-30T03:17:46.415Z,1014.96
2022-08-30T03:18:46.414Z,1014.98
2022-08-30T03:19:46.413Z,1015.00
2022-08-30T03:20:54.205Z,1014.98
2022-08-30T03:21:46.414Z,1014.97
2022-08-30T03:22:46.413Z,1015.02
2022-08-30T03:23:46.414Z,1015.00
2022-08-30T03:24:46.417Z,1015.01
2022-08-30T03:25:46.409Z,1015.01
2022-08-30T03:26:46.785Z,1014.98
2022-08-30T03:27:46.407Z,1015.00
2022-08-30T03:28:46.409Z,1014.97
2022-08-30T03:29:46.405Z,1015.00
2022-08-30T03:30:46.406Z,1015.03
2022-08-30T03:31:52.851Z,1015.03
2022-08-30T03:32:46.407Z,1014.99
2022-08-30T03:33:46.403Z,1015.02
2022-08-30T03:34:46.408Z,1015.00
2022-08-30T03:35:46.427Z,1015.00
2022-08-30T03:36:46.403Z,1015.02
2022-08-30T03:37:46.410Z,1015.00
2022-08-30T03:38:46.401Z,1014.98
2022-08-30T03:39:46.396Z,1014.97
2022-08-30T03:40:46.484Z,1014.96
2022-08-30T03:41:46.395Z,1014.95
2022-08-30T03:42:46.398Z,1014.94
2022-08-30T03:43:46.392Z,1014.89
2022-08-30T03:44:46.394Z,1014.89
2022-08-30T03:45:46.779Z,1014.88
2022-08-30T03:46:46.395Z,1014.87
2022-08-30T03:47:46.392Z,1014.85
2022-08-30T03:48:46.395Z,1014.85
2022-08-30T03:49:46.389Z,1014.84
2022-08-30T03:50:46.389Z,1014.82
2022-08-30T03:51:46.387Z,1014.80
2022-08-30T03:52:46.388Z,1014.80
2022-08-30T03:53:46.385Z,1014.82
2022-08-30T03:54:46.382Z,1014.81
2022-08-30T03:55:46.382Z,1014.82
2022-08-30T03:56:46.384Z,1014.83
2022-08-30T03:57:46.435Z,1014.81
2022-08-30T03:58:46.458Z,1014.83
2022-08-30T03:59:46.395Z,1014.84
2022-08-30T04:00:46.442Z,1014.86
2022-08-30T04:01:46.440Z,1014.88
2022-08-30T04:02:46.380Z,1014.89
2022-08-30T04:03:46.376Z,1014.89
2022-08-30T04:04:46.380Z,1014.90
2022-08-30T04:05:46.379Z,1014.88
2022-08-30T04:06:46.377Z,1014.88
2022-08-30T04:07:46.373Z,1014.89
2022-08-30T04:08:46.379Z,1014.88
2022-08-30T04:09:46.372Z,1014.89
2022-08-30T04:10:46.373Z,1014.87
2022-08-30T04:11:46.368Z,1014.86
2022-08-30T04:12:49.720Z,1014.87
2022-08-30T04:13:46.365Z,1014.84
2022-08-30T04:14:46.365Z,1014.85
2022-08-30T04:15:46.365Z,1014.84
2022-08-30T04:16:46.428Z,1014.84
2022-08-30T04:17:46.364Z,1014.86
2022-08-30T04:18:46.363Z,1014.83
2022-08-30T04:19:46.362Z,1014.87
2022-08-30T04:20:46.361Z,1014.86
2022-08-30T04:21:46.358Z,1014.88
2022-08-30T04:22:46.356Z,1014.90
2022-08-30T04:23:46.356Z,1014.94
2022-08-30T04:24:46.356Z,1014.95
2022-08-30T04:25:46.354Z,1014.93
2022-08-30T04:26:46.359Z,1014.93
2022-08-30T04:27:46.356Z,1014.94
2022-08-30T04:28:46.352Z,1014.94
2022-08-30T04:29:46.353Z,1014.91
2022-08-30T04:30:46.351Z,1014.94
2022-08-30T04:31:46.411Z,1014.93
2022-08-30T04:32:46.348Z,1014.93
2022-08-30T04:33:46.347Z,1014.91
2022-08-30T04:34:46.352Z,1014.92
2022-08-30T04:35:46.342Z,1014.93
2022-08-30T04:36:48.202Z,1014.92
2022-08-30T04:37:46.344Z,1014.95
2022-08-30T04:38:46.342Z,1014.98
2022-08-30T04:39:46.341Z,1014.96
2022-08-30T04:40:46.414Z,1014.95
2022-08-30T04:41:46.392Z,1015.00
2022-08-30T04:42:46.355Z,1014.95
2022-08-30T04:43:46.340Z,1014.96
2022-08-30T04:44:46.342Z,1014.96
2022-08-30T04:45:46.390Z,1014.98
2022-08-30T04:46:46.342Z,1015.00
2022-08-30T04:47:46.336Z,1014.99
2022-08-30T04:48:46.330Z,1014.98
2022-08-30T04:49:46.331Z,1015.00
2022-08-30T04:50:46.334Z,1015.01
2022-08-30T04:51:46.333Z,1015.02
2022-08-30T04:52:46.326Z,1015.01
2022-08-30T04:53:46.329Z,1015.04
2022-08-30T04:54:46.326Z,1015.05
2022-08-30T04:55:46.323Z,1015.08
2022-08-30T04:56:46.322Z,1015.05
2022-08-30T04:57:46.333Z,1015.04
2022-08-30T04:58:46.323Z,1015.03
2022-08-30T04:59:46.320Z,1015.05
2022-08-30T05:00:46.361Z,1015.07
2022-08-30T05:01:46.338Z,1015.05
2022-08-30T05:02:46.466Z,1015.10
2022-08-30T05:03:46.320Z,1015.11
2022-08-30T05:04:46.321Z,1015.12
2022-08-30T05:05:46.320Z,1015.13
2022-08-30T05:06:46.314Z,1015.13
2022-08-30T05:07:46.321Z,1015.18
2022-08-30T05:08:46.870Z,1015.15
2022-08-30T05:09:46.311Z,1015.15
2022-08-30T05:10:46.311Z,1015.17
2022-08-30T05:11:46.322Z,1015.22
2022-08-30T05:12:46.325Z,1015.22
2022-08-30T05:13:46.312Z,1015.21
2022-08-30T05:14:46.319Z,1015.23
2022-08-30T05:15:46.311Z,1015.23
2022-08-30T05:16:46.409Z,1015.29
2022-08-30T05:17:46.309Z,1015.24
2022-08-30T05:18:46.305Z,1015.25
2022-08-30T05:19:46.303Z,1015.25
2022-08-30T05:20:46.308Z,1015.26
2022-08-30T05:21:46.304Z,1015.25
2022-08-30T05:22:46.317Z,1015.24
2022-08-30T05:23:46.300Z,1015.27
2022-08-30T05:24:46.294Z,1015.26
2022-08-30T05:25:46.298Z,1015.28
2022-08-30T05:27:46.297Z,1015.28
2022-08-30T05:28:46.297Z,1015.33
2022-08-30T05:29:46.295Z,1015.29
2022-08-30T05:30:46.290Z,1015.31
2022-08-30T05:31:46.388Z,1015.30
2022-08-30T05:32:46.286Z,1015.32
2022-08-30T05:33:46.293Z,1015.33
2022-08-30T05:34:46.289Z,1015.34
2022-08-30T05:35:46.289Z,1015.39
2022-08-30T05:36:46.287Z,1015.37
2022-08-30T05:37:46.287Z,1015.38
2022-08-30T05:38:46.279Z,1015.34
2022-08-30T05:39:51.469Z,1015.37
2022-08-30T05:40:46.369Z,1015.35
2022-08-30T05:41:46.279Z,1015.42
2022-08-30T05:42:46.283Z,1015.42
2022-08-30T05:43:46.284Z,1015.41
2022-08-30T05:44:46.279Z,1015.34
2022-08-30T05:45:46.276Z,1015.35
2022-08-30T05:46:46.354Z,1015.37
2022-08-30T05:47:46.277Z,1015.36
2022-08-30T05:48:46.272Z,1015.37
2022-08-30T05:49:46.279Z,1015.36
2022-08-30T05:50:46.272Z,1015.37
2022-08-30T05:51:46.270Z,1015.35
2022-08-30T05:52:46.268Z,1015.33
2022-08-30T05:53:46.267Z,1015.30
2022-08-30T05:54:46.265Z,1015.31
2022-08-30T05:55:46.266Z,1015.33
2022-08-30T05:56:46.263Z,1015.27
2022-08-30T05:57:46.272Z,1015.31
2022-08-30T05:58:46.261Z,1015.31
2022-08-30T05:59:46.262Z,1015.32
2022-08-30T06:00:46.259Z,1015.27
2022-08-30T06:01:46.323Z,1015.29
2022-08-30T06:02:46.327Z,1015.31
2022-08-30T06:03:46.260Z,1015.29
2022-08-30T06:04:46.264Z,1015.30
2022-08-30T06:06:46.258Z,1015.30
2022-08-30T06:07:46.254Z,1015.27
2022-08-30T06:08:46.258Z,1015.28
2022-08-30T06:09:46.254Z,1015.27
2022-08-30T06:10:46.249Z,1015.29
2022-08-30T06:11:46.248Z,1015.27
2022-08-30T06:12:46.249Z,1015.23
2022-08-30T06:13:46.249Z,1015.26
2022-08-30T06:14:46.246Z,1015.28
2022-08-30T06:15:46.285Z,1015.29
2022-08-30T06:16:46.246Z,1015.31
2022-08-30T06:17:46.244Z,1015.31
2022-08-30T06:18:46.245Z,1015.29
2022-08-30T06:19:46.248Z,1015.33
2022-08-30T06:20:46.240Z,1015.31
2022-08-30T06:21:46.252Z,1015.32
2022-08-30T06:22:46.240Z,1015.29
2022-08-30T06:23:46.243Z,1015.30
2022-08-30T06:25:00.236Z,1015.29
2022-08-30T06:25:46.239Z,1015.28
2022-08-30T06:26:46.239Z,1015.29
2022-08-30T06:27:46.244Z,1015.31
2022-08-30T06:28:46.236Z,1015.31
2022-08-30T06:29:46.243Z,1015.31
2022-08-30T06:30:46.233Z,1015.30
2022-08-30T06:31:46.292Z,1015.32
2022-08-30T06:32:46.231Z,1015.29
2022-08-30T06:33:46.234Z,1015.33
2022-08-30T06:34:46.237Z,1015.30
2022-08-30T06:35:58.160Z,1015.33
2022-08-30T06:36:46.255Z,1015.27
2022-08-30T06:37:46.235Z,1015.28
2022-08-30T06:38:46.231Z,1015.27
2022-08-30T06:39:46.225Z,1015.35
2022-08-30T06:40:46.291Z,1015.31
2022-08-30T06:41:46.225Z,1015.32
2022-08-30T06:42:46.222Z,1015.34
2022-08-30T06:43:49.068Z,1015.30
2022-08-30T06:44:46.225Z,1015.32
2022-08-30T06:45:46.220Z,1015.32
2022-08-30T06:46:46.273Z,1015.33
2022-08-30T06:47:46.258Z,1015.34
2022-08-30T06:48:48.282Z,1015.30
2022-08-30T06:49:46.221Z,1015.30
2022-08-30T06:50:46.217Z,1015.25
2022-08-30T06:51:46.215Z,1015.25
2022-08-30T06:52:46.216Z,1015.20
2022-08-30T06:53:46.222Z,1015.21
2022-08-30T06:54:46.216Z,1015.20
2022-08-30T06:55:46.219Z,1015.21
2022-08-30T06:56:58.021Z,1015.22
2022-08-30T06:57:46.213Z,1015.19
2022-08-30T06:58:46.209Z,1015.18
2022-08-30T06:59:46.210Z,1015.22
2022-08-30T07:00:46.209Z,1015.16
2022-08-30T07:01:46.256Z,1015.17
2022-08-30T07:02:46.290Z,1015.15
2022-08-30T07:03:46.209Z,1015.16
2022-08-30T07:04:46.208Z,1015.21
2022-08-30T07:05:46.209Z,1015.19
2022-08-30T07:06:46.206Z,1015.23
2022-08-30T07:07:46.202Z,1015.19
2022-08-30T07:08:46.202Z,1015.18
2022-08-30T07:09:46.205Z,1015.21
2022-08-30T07:10:46.203Z,1015.18
2022-08-30T07:11:46.205Z,1015.18
2022-08-30T07:12:46.203Z,1015.19
2022-08-30T07:13:46.203Z,1015.17
2022-08-30T07:14:46.198Z,1015.24
2022-08-30T07:15:46.265Z,1015.23
2022-08-30T07:16:46.199Z,1015.23
2022-08-30T07:17:46.204Z,1015.23
2022-08-30T07:18:46.198Z,1015.25
2022-08-30T07:19:46.198Z,1015.25
2022-08-30T07:20:46.201Z,1015.28
2022-08-30T07:21:46.197Z,1015.26
2022-08-30T07:22:46.196Z,1015.29
2022-08-30T07:23:48.341Z,1015.26
2022-08-30T07:24:46.195Z,1015.27
2022-08-30T07:25:46.195Z,1015.29
2022-08-30T07:26:46.195Z,1015.32
2022-08-30T07:27:46.193Z,1015.29
2022-08-30T07:28:46.191Z,1015.36
2022-08-30T07:29:46.196Z,1015.35
2022-08-30T07:30:46.190Z,1015.35
2022-08-30T07:31:46.197Z,1015.37
2022-08-30T07:32:46.190Z,1015.37
2022-08-30T07:33:46.191Z,1015.36
2022-08-30T07:34:46.189Z,1015.37
2022-08-30T07:35:46.191Z,1015.35
2022-08-30T07:36:46.187Z,1015.37
2022-08-30T07:37:46.192Z,1015.35
2022-08-30T07:38:46.191Z,1015.39
2022-08-30T07:39:48.031Z,1015.38
2022-08-30T07:40:46.237Z,1015.36
2022-08-30T07:41:46.191Z,1015.33
2022-08-30T07:42:46.187Z,1015.34
2022-08-30T07:43:46.192Z,1015.37
2022-08-30T07:44:46.189Z,1015.35
2022-08-30T07:45:46.190Z,1015.34
2022-08-30T07:46:46.254Z,1015.38
2022-08-30T07:47:46.186Z,1015.36
2022-08-30T07:48:46.188Z,1015.37
2022-08-30T07:49:46.190Z,1015.36
2022-08-30T07:50:46.321Z,1015.39
2022-08-30T07:51:46.204Z,1015.42
2022-08-30T07:52:46.187Z,1015.34
2022-08-30T07:53:46.185Z,1015.38
2022-08-30T07:54:46.185Z,1015.36
2022-08-30T07:55:46.186Z,1015.42
2022-08-30T07:56:46.192Z,1015.34
2022-08-30T07:57:46.190Z,1015.38
2022-08-30T07:58:46.184Z,1015.37
2022-08-30T07:59:46.187Z,1015.37
2022-08-30T08:00:46.184Z,1015.39
2022-08-30T08:01:46.198Z,1015.41
2022-08-30T08:02:46.251Z,1015.37
2022-08-30T08:03:46.189Z,1015.42
2022-08-30T08:04:46.183Z,1015.43
2022-08-30T08:05:46.183Z,1015.48
2022-08-30T08:06:46.183Z,1015.49
2022-08-30T08:07:46.186Z,1015.46
2022-08-30T08:08:46.182Z,1015.44
2022-08-30T08:09:46.185Z,1015.49
2022-08-30T08:10:46.180Z,1015.46
2022-08-30T08:11:46.182Z,1015.48
2022-08-30T08:12:46.189Z,1015.49
2022-08-30T08:13:52.653Z,1015.55
2022-08-30T08:14:46.181Z,1015.55
2022-08-30T08:15:46.224Z,1015.59
2022-08-30T08:16:46.182Z,1015.63
2022-08-30T08:17:46.183Z,1015.64
2022-08-30T08:18:46.184Z,1015.68
2022-08-30T08:19:46.184Z,1015.64
2022-08-30T08:20:46.188Z,1015.51
2022-08-30T08:21:46.189Z,1015.53
2022-08-30T08:22:46.185Z,1015.46
2022-08-30T08:23:46.185Z,1015.49
2022-08-30T08:24:46.186Z,1015.55
2022-08-30T08:25:46.191Z,1015.49
2022-08-30T08:26:46.194Z,1015.50
2022-08-30T08:27:46.193Z,1015.45
2022-08-30T08:28:46.186Z,1015.50
2022-08-30T08:29:46.191Z,1015.45
2022-08-30T08:30:48.273Z,1015.47
2022-08-30T08:31:46.301Z,1015.42
2022-08-30T08:32:46.190Z,1015.43
2022-08-30T08:33:46.193Z,1015.47
2022-08-30T08:34:46.403Z,1015.51
2022-08-30T08:35:46.198Z,1015.54
2022-08-30T08:36:46.191Z,1015.60
2022-08-30T08:37:46.199Z,1015.54
2022-08-30T08:38:46.193Z,1015.59
2022-08-30T08:39:46.197Z,1015.62
2022-08-30T08:40:46.300Z,1015.58
2022-08-30T08:41:46.208Z,1015.59
2022-08-30T08:42:46.197Z,1015.59
2022-08-30T08:43:46.194Z,1015.56
2022-08-30T08:44:46.277Z,1015.55
2022-08-30T08:45:46.198Z,1015.58
2022-08-30T08:46:46.225Z,1015.54
2022-08-30T08:47:46.200Z,1015.52
2022-08-30T08:48:59.506Z,1015.53
2022-08-30T08:49:46.201Z,1015.57
2022-08-30T08:50:46.199Z,1015.55
2022-08-30T08:51:46.200Z,1015.54
2022-08-30T08:52:46.203Z,1015.56
2022-08-30T08:53:47.201Z,1015.53
2022-08-30T08:54:46.200Z,1015.51
2022-08-30T08:56:46.200Z,1015.46
2022-08-30T08:57:46.206Z,1015.46
2022-08-30T08:58:46.203Z,1015.48
2022-08-30T08:59:46.204Z,1015.45
2022-08-30T09:00:46.204Z,1015.48
2022-08-30T09:01:46.290Z,1015.50
2022-08-30T09:02:46.203Z,1015.50
2022-08-30T09:03:46.202Z,1015.49
2022-08-30T09:04:46.295Z,1015.48
2022-08-30T09:05:46.205Z,1015.47
2022-08-30T09:06:46.204Z,1015.49
2022-08-30T09:07:46.205Z,1015.50
2022-08-30T09:08:46.211Z,1015.54
2022-08-30T09:09:46.205Z,1015.49
2022-08-30T09:10:50.755Z,1015.47
2022-08-30T09:11:46.207Z,1015.48
2022-08-30T09:12:46.210Z,1015.45
2022-08-30T09:13:46.207Z,1015.46
2022-08-30T09:14:46.707Z,1015.45
2022-08-30T09:15:47.419Z,1015.47
2022-08-30T09:16:46.211Z,1015.48
2022-08-30T09:17:46.210Z,1015.44
2022-08-30T09:18:48.188Z,1015.44
2022-08-30T09:19:46.214Z,1015.45
2022-08-30T09:20:46.211Z,1015.49
2022-08-30T09:21:46.211Z,1015.44
2022-08-30T09:22:46.788Z,1015.47
2022-08-30T09:23:46.210Z,1015.42
2022-08-30T09:24:46.212Z,1015.43
2022-08-30T09:25:46.212Z,1015.44
2022-08-30T09:26:46.212Z,1015.44
2022-08-30T09:27:46.214Z,1015.46
2022-08-30T09:28:46.217Z,1015.47
2022-08-30T09:29:46.213Z,1015.46
2022-08-30T09:30:46.253Z,1015.43
2022-08-30T09:31:46.214Z,1015.40
2022-08-30T09:32:46.215Z,1015.39
2022-08-30T09:33:46.215Z,1015.35
2022-08-30T09:34:46.220Z,1015.42
2022-08-30T09:35:46.215Z,1015.41
2022-08-30T09:36:46.218Z,1015.42
2022-08-30T09:37:46.215Z,1015.42
2022-08-30T09:38:46.216Z,1015.41
2022-08-30T09:39:46.216Z,1015.39
2022-08-30T09:40:46.263Z,1015.44
2022-08-30T09:41:46.218Z,1015.44
2022-08-30T09:42:46.223Z,1015.41
2022-08-30T09:43:46.218Z,1015.42
2022-08-30T09:44:46.227Z,1015.38
2022-08-30T09:45:46.246Z,1015.41
2022-08-30T09:46:46.220Z,1015.41
2022-08-30T09:47:46.220Z,1015.40
2022-08-30T09:48:46.222Z,1015.40
2022-08-30T09:49:46.221Z,1015.37
2022-08-30T09:50:46.273Z,1015.42
2022-08-30T09:51:46.229Z,1015.41
2022-08-30T09:52:46.233Z,1015.38
2022-08-30T09:54:07.372Z,1015.36
2022-08-30T09:54:46.227Z,1015.31
2022-08-30T09:55:46.236Z,1015.32
2022-08-30T09:56:46.227Z,1015.29
2022-08-30T09:57:46.228Z,1015.30
2022-08-30T09:58:46.225Z,1015.33
2022-08-30T09:59:46.223Z,1015.33
2022-08-30T10:00:46.224Z,1015.31
2022-08-30T10:01:46.234Z,1015.31
2022-08-30T10:02:46.228Z,1015.29
2022-08-30T10:03:46.226Z,1015.31
2022-08-30T10:04:46.233Z,1015.29
2022-08-30T10:05:46.230Z,1015.31
2022-08-30T10:06:46.260Z,1015.29
2022-08-30T10:07:46.274Z,1015.28
2022-08-30T10:08:46.238Z,1015.30
2022-08-30T10:09:46.237Z,1015.33
2022-08-30T10:10:46.230Z,1015.33
2022-08-30T10:11:46.228Z,1015.31
2022-08-30T10:12:46.236Z,1015.34
2022-08-30T10:13:46.232Z,1015.32
2022-08-30T10:14:46.234Z,1015.30
2022-08-30T10:15:46.233Z,1015.30
2022-08-30T10:16:46.249Z,1015.28
2022-08-30T10:17:46.235Z,1015.26
2022-08-30T10:18:46.238Z,1015.25
2022-08-30T10:19:46.235Z,1015.25
2022-08-30T10:20:46.241Z,1015.22
2022-08-30T10:21:46.233Z,1015.28
2022-08-30T10:22:46.236Z,1015.30
2022-08-30T10:23:46.236Z,1015.22
2022-08-30T10:24:46.239Z,1015.27
2022-08-30T10:25:46.238Z,1015.32
2022-08-30T10:26:46.238Z,1015.30
2022-08-30T10:27:46.237Z,1015.37
2022-08-30T10:28:46.806Z,1015.35
2022-08-30T10:29:46.239Z,1015.38
2022-08-30T10:31:46.239Z,1015.35
2022-08-30T10:32:46.239Z,1015.34
2022-08-30T10:33:46.246Z,1015.31
2022-08-30T10:34:46.242Z,1015.27
2022-08-30T10:35:46.242Z,1015.27
2022-08-30T10:36:46.248Z,1015.30
2022-08-30T10:37:46.250Z,1015.33
2022-08-30T10:38:46.246Z,1015.31
2022-08-30T10:39:46.246Z,1015.31
2022-08-30T10:40:46.308Z,1015.33
2022-08-30T10:41:46.252Z,1015.30
2022-08-30T10:42:46.248Z,1015.32
2022-08-30T10:43:46.246Z,1015.33
2022-08-30T10:44:46.254Z,1015.29
2022-08-30T10:45:46.247Z,1015.28
2022-08-30T10:46:46.250Z,1015.27
2022-08-30T10:47:46.248Z,1015.28
2022-08-30T10:48:47.491Z,1015.26
2022-08-30T10:49:46.251Z,1015.26
2022-08-30T10:50:46.259Z,1015.32
2022-08-30T10:51:46.253Z,1015.25
2022-08-30T10:52:46.254Z,1015.24
2022-08-30T10:53:46.252Z,1015.22
2022-08-30T10:54:46.257Z,1015.26
2022-08-30T10:55:49.958Z,1015.24
2022-08-30T10:56:46.257Z,1015.23
2022-08-30T10:57:46.254Z,1015.22
2022-08-30T10:58:46.257Z,1015.22
2022-08-30T10:59:46.259Z,1015.24
2022-08-30T11:00:46.299Z,1015.18
2022-08-30T11:01:46.870Z,1015.19
2022-08-30T11:02:46.257Z,1015.18
2022-08-30T11:03:46.255Z,1015.21
2022-08-30T11:04:46.272Z,1015.15
2022-08-30T11:05:46.262Z,1015.17
2022-08-30T11:06:46.258Z,1015.20
2022-08-30T11:07:46.258Z,1015.21
2022-08-30T11:08:46.260Z,1015.19
2022-08-30T11:09:46.264Z,1015.17
2022-08-30T11:10:47.839Z,1015.20
2022-08-30T11:11:46.262Z,1015.21
2022-08-30T11:12:46.296Z,1015.18
2022-08-30T11:13:46.267Z,1015.19
2022-08-30T11:14:46.268Z,1015.18
2022-08-30T11:15:46.265Z,1015.16
2022-08-30T11:16:46.271Z,1015.21
2022-08-30T11:17:46.265Z,1015.16
2022-08-30T11:18:50.938Z,1015.21
2022-08-30T11:19:46.267Z,1015.16
2022-08-30T11:20:46.267Z,1015.16
2022-08-30T11:21:46.266Z,1015.21
2022-08-30T11:22:46.267Z,1015.22
2022-08-30T11:23:46.267Z,1015.24
2022-08-30T11:24:46.268Z,1015.26
2022-08-30T11:25:46.269Z,1015.25
2022-08-30T11:26:46.269Z,1015.24
2022-08-30T11:27:46.271Z,1015.22
2022-08-30T11:28:46.272Z,1015.22
2022-08-30T11:29:46.272Z,1015.25
2022-08-30T11:30:46.273Z,1015.22
2022-08-30T11:31:46.782Z,1015.21
2022-08-30T11:32:46.278Z,1015.24
2022-08-30T11:33:46.404Z,1015.22
2022-08-30T11:34:46.280Z,1015.20
2022-08-30T11:35:48.597Z,1015.20
2022-08-30T11:36:46.399Z,1015.22
2022-08-30T11:37:46.279Z,1015.17
2022-08-30T11:38:46.277Z,1015.21
2022-08-30T11:39:46.278Z,1015.20
2022-08-30T11:40:46.281Z,1015.17
2022-08-30T11:41:47.958Z,1015.15
2022-08-30T11:42:46.289Z,1015.16
2022-08-30T11:43:46.285Z,1015.09
2022-08-30T11:44:46.289Z,1015.14
2022-08-30T11:45:46.318Z,1015.11
2022-08-30T11:46:46.286Z,1015.08
2022-08-30T11:47:46.287Z,1015.09
2022-08-30T11:48:53.586Z,1015.10
2022-08-30T11:49:46.407Z,1015.07
2022-08-30T11:50:48.354Z,1015.05
2022-08-30T11:51:50.877Z,1015.11
2022-08-30T11:52:46.294Z,1015.14
2022-08-30T11:53:46.292Z,1015.07
2022-08-30T11:54:48.816Z,1015.09
2022-08-30T11:55:46.293Z,1015.14
2022-08-30T11:56:46.295Z,1015.09
2022-08-30T11:57:46.303Z,1015.07
2022-08-30T11:58:46.298Z,1015.07
2022-08-30T11:59:46.296Z,1015.04
2022-08-30T12:00:51.328Z,1015.01
2022-08-30T12:01:50.726Z,1015.04
2022-08-30T12:02:46.470Z,1015.03
2022-08-30T12:03:46.441Z,1015.08
2022-08-30T12:04:46.302Z,1015.05
2022-08-30T12:05:48.063Z,1015.02
2022-08-30T12:06:46.305Z,1015.05
2022-08-30T12:07:46.323Z,1015.04
2022-08-30T12:08:47.247Z,1014.99
2022-08-30T12:09:46.301Z,1015.00